Time;durP1;ratioP1;P1;durP2;ratioP2;P2;SDS_P1;SDS_P2;PMS_P1;PMS_P2;Temp;Humidity;BMP_temperature;BMP_pressure;BME280_temperature;BME280_humidity;BME280_pressure;Samples;Min_cycle;Max_cycle;Signal;HPM_P1;HPM_P2
2021/08/24 00:00:51;;;;;;;6.88;2.42;;;;;;;18.09;70.77;102711.59;5032834;28;20152;-61
2021/08/24 00:03:18;;;;;;;3.53;1.90;;;;;;;17.74;71.38;102710.50;5044012;28;20445;-61
2021/08/24 00:05:46;;;;;;;6.32;2.40;;;;;;;17.63;71.94;102709.84;5034164;28;20076;-60
2021/08/24 00:08:14;;;;;;;5.82;2.28;;;;;;;17.91;70.79;102716.84;5036997;28;20661;-61
2021/08/24 00:10:47;;;;;;;7.45;2.20;;;;;;;18.16;69.60;102712.63;5026625;28;20088;-61
2021/08/24 00:13:15;;;;;;;4.32;2.00;;;;;;;18.27;68.64;102722.22;5042007;28;20613;-61
2021/08/24 00:15:42;;;;;;;5.18;2.25;;;;;;;18.54;67.62;102712.47;5040825;28;20048;-61
2021/08/24 00:18:10;;;;;;;6.47;2.30;;;;;;;18.12;68.92;102719.25;5032997;28;20140;-61
2021/08/24 00:20:37;;;;;;;;;;;;;;;17.71;71.06;102724.06;5043295;28;20091;-61
2021/08/24 00:23:08;;;;;;;5.25;2.47;;;;;;;17.49;71.71;102725.28;5028607;28;19925;-61
2021/08/24 00:25:36;;;;;;;5.95;2.35;;;;;;;17.32;72.50;102718.91;5038450;28;20110;-61
2021/08/24 00:28:02;;;;;;;5.25;2.30;;;;;;;17.70;72.07;102717.09;5033481;28;20045;-61
2021/08/24 00:30:30;;;;;;;4.90;2.20;;;;;;;17.88;70.41;102713.69;5044030;28;20044;-61
2021/08/24 00:32:57;;;;;;;4.25;2.05;;;;;;;18.02;70.01;102717.66;5043474;28;20143;-61
2021/08/24 00:35:23;;;;;;;4.35;2.22;;;;;;;18.16;69.34;102717.94;5029472;28;20148;-60
2021/08/24 00:37:51;;;;;;;8.30;2.40;;;;;;;17.70;70.61;102713.56;5036867;28;20136;-61
2021/08/24 00:40:18;;;;;;;4.53;2.13;;;;;;;17.37;72.38;102724.63;5032741;28;20064;-61
2021/08/24 00:42:46;;;;;;;4.72;2.10;;;;;;;17.17;73.41;102723.00;5041985;28;20098;-61
2021/08/24 00:45:14;;;;;;;9.93;2.40;;;;;;;17.20;72.80;102720.06;5017117;28;20424;-61
2021/08/24 00:47:43;;;;;;;9.35;2.45;;;;;;;17.05;73.89;102722.31;5041874;28;20139;-61
2021/08/24 00:50:35;;;;;;;6.28;2.15;;;;;;;16.94;74.88;102722.50;5018348;28;20102;-60
2021/08/24 00:53:07;;;;;;;7.45;2.50;;;;;;;16.97;74.21;102728.38;5036535;28;20506;-61
2021/08/24 00:55:34;;;;;;;5.50;2.55;;;;;;;17.14;74.03;102718.00;5043413;28;20055;-62
2021/08/24 00:58:06;;;;;;;6.65;2.70;;;;;;;16.92;74.38;102722.63;5033362;28;20435;-61
2021/08/24 01:00:34;;;;;;;7.85;2.95;;;;;;;17.28;72.93;102716.69;5041451;28;20163;-60
2021/08/24 01:03:07;;;;;;;5.20;2.42;;;;;;;17.13;73.29;102721.59;5035118;28;20396;-61
2021/08/24 01:05:39;;;;;;;6.38;2.72;;;;;;;17.14;73.23;102724.13;5038392;28;20316;-59
2021/08/24 01:08:26;;;;;;;5.70;2.42;;;;;;;16.93;74.55;102724.28;5033267;28;20579;-58
2021/08/24 01:11:28;;;;;;;5.47;2.38;;;;;;;17.11;73.60;102727.06;5038338;28;20085;-60
2021/08/24 01:14:19;;;;;;;5.35;2.47;;;;;;;17.35;73.04;102733.72;5033905;28;20063;-56
2021/08/24 01:16:52;;;;;;;8.45;2.40;;;;;;;17.25;72.75;102738.19;5037965;28;20148;-59
2021/08/24 01:19:43;;;;;;;7.28;2.78;;;;;;;16.99;74.56;102725.53;5024532;28;20654;-58
2021/08/24 01:22:29;;;;;;;5.28;2.42;;;;;;;16.86;75.30;102723.22;5040939;28;20128;-61
2021/08/24 01:25:16;;;;;;;5.57;2.65;;;;;;;16.76;75.91;102730.31;5034778;28;20483;-60
2021/08/24 01:27:57;;;;;;;6.77;2.90;;;;;;;16.77;76.48;102726.66;5039956;28;20088;-61
2021/08/24 01:30:39;;;;;;;6.05;3.13;;;;;;;16.75;76.59;102732.09;5033108;28;20259;-61
2021/08/24 01:33:39;;;;;;;8.88;3.78;;;;;;;16.77;77.03;102730.16;5036170;28;20044;-61
2021/08/24 01:36:31;;;;;;;5.15;2.40;;;;;;;17.41;74.29;102725.16;5033373;28;20045;-59
2021/08/24 01:39:08;;;;;;;9.07;3.45;;;;;;;17.61;73.30;102725.09;5042173;28;20072;-58
2021/08/24 01:42:18;;;;;;;6.72;3.63;;;;;;;17.34;74.33;102732.84;5031806;28;20092;-61
2021/08/24 01:45:00;;;;;;;9.50;3.03;;;;;;;17.16;75.38;102726.63;5035553;28;20076;-57
2021/08/24 01:47:32;;;;;;;6.07;2.92;;;;;;;17.55;73.78;102727.34;5028451;28;20044;-60
2021/08/24 01:50:20;;;;;;;7.78;3.05;;;;;;;17.23;74.78;102724.22;5042048;28;20081;-57
2021/08/24 01:52:54;;;;;;;7.47;3.30;;;;;;;17.00;76.46;102730.72;5037145;28;20055;-56
2021/08/24 01:55:25;;;;;;;7.43;3.75;;;;;;;16.76;77.86;102732.97;5046381;28;20127;-61
2021/08/24 01:57:59;;;;;;;5.68;3.00;;;;;;;16.91;77.00;102734.22;5041115;28;20519;-61
2021/08/24 02:00:26;;;;;;;7.13;2.83;;;;;;;16.95;76.55;102730.28;5036095;28;20184;-60
2021/08/24 02:03:06;;;;;;;7.57;3.67;;;;;;;17.11;76.65;102736.81;5026682;28;20049;-58
2021/08/24 02:05:47;;;;;;;6.63;3.70;;;;;;;16.97;76.93;102736.31;5035207;28;20041;-61
2021/08/24 02:08:19;;;;;;;10.77;3.38;;;;;;;16.97;77.16;102735.47;5044459;28;20144;-58
2021/08/24 02:10:47;;;;;;;8.35;3.90;;;;;;;17.56;74.30;102736.13;5032809;28;20288;-59
2021/08/24 02:13:16;;;;;;;;;;;;;;;17.37;74.98;102740.53;5040222;28;20577;-59
2021/08/24 02:15:49;;;;;;;7.45;2.92;;;;;;;16.90;76.98;102747.63;5033491;28;19928;-59
2021/08/24 02:18:20;;;;;;;5.75;2.67;;;;;;;16.92;77.10;102743.03;5042902;28;20056;-59
2021/08/24 02:20:55;;;;;;;6.43;3.03;;;;;;;17.02;77.46;102743.84;5036350;28;20564;-61
2021/08/24 02:23:25;;;;;;;7.20;3.22;;;;;;;16.73;78.69;102759.72;5043504;28;20147;-61
2021/08/24 02:25:57;;;;;;;10.30;3.80;;;;;;;16.81;79.37;102743.97;5039493;28;20163;-61
2021/08/24 02:28:32;;;;;;;5.65;3.00;;;;;;;16.83;79.02;102759.75;5031311;28;20482;-59
2021/08/24 02:31:12;;;;;;;8.45;3.30;;;;;;;16.49;80.46;102753.03;5044121;28;20171;-59
2021/08/24 02:33:51;;;;;;;5.97;3.40;;;;;;;16.45;81.20;102748.16;5034457;28;20125;-61
2021/08/24 02:36:20;;;;;;;9.82;3.30;;;;;;;16.41;82.21;102751.06;5043094;28;20088;-60
2021/08/24 02:38:59;;;;;;;9.20;3.70;;;;;;;16.42;81.39;102749.25;5034641;28;20052;-60
2021/08/24 02:41:53;;;;;;;6.68;3.25;;;;;;;16.38;81.36;102750.50;5036198;28;20552;-60
2021/08/24 02:44:25;;;;;;;6.47;3.50;;;;;;;16.29;82.11;102753.97;5035533;28;20156;-61
2021/08/24 02:46:53;;;;;;;9.18;3.50;;;;;;;16.17;83.19;102753.25;5042512;28;20083;-61
2021/08/24 02:49:24;;;;;;;6.93;3.28;;;;;;;16.16;83.63;102741.00;5034857;28;20378;-61
2021/08/24 02:51:54;;;;;;;7.95;3.42;;;;;;;16.26;82.96;102747.13;5045039;28;20090;-60
2021/08/24 02:54:35;;;;;;;6.97;3.85;;;;;;;16.24;82.87;102753.56;5035873;28;20141;-62
2021/08/24 02:57:04;;;;;;;9.57;4.03;;;;;;;16.46;82.30;102758.59;5034138;28;20364;-58
2021/08/24 02:59:32;;;;;;;9.13;3.83;;;;;;;16.78;80.69;102749.56;5044485;28;20514;-60
2021/08/24 03:01:58;;;;;;;11.33;3.70;;;;;;;17.03;79.86;102749.97;5016901;28;20474;-61
2021/08/24 03:04:26;;;;;;;7.85;3.47;;;;;;;16.85;79.43;102755.97;5043347;28;20594;-61
2021/08/24 03:06:58;;;;;;;7.50;3.67;;;;;;;17.06;78.69;102753.16;5029695;28;20408;-60
2021/08/24 03:09:27;;;;;;;7.18;3.80;;;;;;;17.18;78.18;102748.53;5037826;28;20517;-61
2021/08/24 03:12:08;;;;;;;7.60;3.72;;;;;;;17.46;77.53;102759.22;5033600;28;20087;-61
2021/08/24 03:14:52;;;;;;;5.75;3.67;;;;;;;17.74;75.38;102760.94;5041454;28;20053;-59
2021/08/24 03:17:26;;;;;;;7.93;3.83;;;;;;;17.31;77.41;102753.56;5042537;28;20482;-61
2021/08/24 03:19:56;;;;;;;14.00;4.60;;;;;;;17.45;76.69;102757.56;5038709;28;20079;-61
2021/08/24 03:22:23;;;;;;;10.88;4.63;;;;;;;17.45;77.71;102752.25;5036861;28;20140;-61
2021/08/24 03:24:50;;;;;;;11.85;4.82;;;;;;;17.48;77.35;102757.25;5034671;28;20059;-60
2021/08/24 03:27:17;;;;;;;9.98;4.57;;;;;;;17.61;76.80;102760.41;5043534;28;20563;-61
2021/08/24 03:29:59;;;;;;;11.35;5.10;;;;;;;17.05;79.33;102754.13;5036287;28;20421;-60
2021/08/24 03:32:26;;;;;;;12.48;4.30;;;;;;;16.71;81.23;102754.56;5040319;28;20488;-61
2021/08/24 03:34:53;;;;;;;9.98;4.80;;;;;;;16.70;82.45;102747.59;5030830;28;20084;-61
2021/08/24 03:37:19;;;;;;;10.10;4.45;;;;;;;16.80;80.94;102751.06;5037802;28;20572;-62
2021/08/24 03:39:46;;;;;;;13.00;4.70;;;;;;;16.42;83.46;102741.31;5043250;28;20303;-61
2021/08/24 03:42:13;;;;;;;13.75;4.75;;;;;;;16.36;85.25;102752.44;5035199;28;20055;-60
2021/08/24 03:44:39;;;;;;;11.38;4.63;;;;;;;16.35;85.32;102759.56;5044102;28;20153;-61
2021/08/24 03:47:06;;;;;;;12.48;5.13;;;;;;;16.29;85.33;102759.25;5034106;28;20365;-58
2021/08/24 03:49:32;;;;;;;8.43;5.00;;;;;;;16.22;86.00;102761.63;5035325;28;20048;-59
2021/08/24 03:51:59;;;;;;;13.32;4.97;;;;;;;16.38;84.64;102755.78;5035076;28;20555;-61
2021/08/24 03:54:25;;;;;;;8.27;4.65;;;;;;;16.68;83.01;102768.09;5042779;28;20124;-61
2021/08/24 03:56:51;;;;;;;12.27;5.35;;;;;;;16.30;84.84;102766.25;5042142;28;20136;-61
2021/08/24 03:59:18;;;;;;;9.55;4.80;;;;;;;16.23;86.06;102770.41;5034955;28;20437;-61
2021/08/24 04:01:44;;;;;;;11.18;6.18;;;;;;;16.35;85.43;102769.34;5037327;28;20136;-61
2021/08/24 04:04:11;;;;;;;8.88;4.22;;;;;;;16.56;84.27;102759.47;5030206;28;20201;-59
2021/08/24 04:06:37;;;;;;;10.93;4.82;;;;;;;16.46;85.31;102771.84;5041563;28;20410;-60
2021/08/24 04:09:04;;;;;;;9.75;5.53;;;;;;;16.31;86.46;102770.59;5034127;28;20080;-61
2021/08/24 04:11:31;;;;;;;10.20;4.78;;;;;;;16.34;85.86;102773.75;5038909;28;20053;-60
2021/08/24 04:13:57;;;;;;;11.15;5.25;;;;;;;16.34;84.80;102773.75;5041981;28;20145;-60
2021/08/24 04:16:24;;;;;;;12.27;5.45;;;;;;;16.73;84.34;102767.69;5024624;28;20102;-60
2021/08/24 04:18:51;;;;;;;11.77;5.53;;;;;;;16.63;83.73;102769.50;5041950;28;20633;-62
2021/08/24 04:21:18;;;;;;;12.75;5.60;;;;;;;16.75;83.21;102782.44;5034296;28;20155;-62
2021/08/24 04:23:47;;;;;;;12.03;5.00;;;;;;;16.82;82.49;102771.31;5041796;28;20531;-62
2021/08/24 04:26:14;;;;;;;;;;;;;;;16.34;86.04;102781.72;5036777;28;20365;-59
2021/08/24 04:28:41;;;;;;;11.98;5.47;;;;;;;16.41;85.61;102776.72;5036015;28;20023;-59
2021/08/24 04:31:11;;;;;;;9.75;5.78;;;;;;;16.56;85.50;102788.59;5029887;28;20514;-59
2021/08/24 04:33:38;;;;;;;11.10;5.85;;;;;;;16.34;86.38;102783.53;5040568;28;20052;-60
2021/08/24 04:36:06;;;;;;;12.13;5.63;;;;;;;16.32;86.90;102782.84;5039398;28;20139;-61
2021/08/24 04:38:34;;;;;;;13.32;6.22;;;;;;;16.62;85.53;102795.13;5034834;28;20457;-61
2021/08/24 04:41:01;;;;;;;14.35;6.57;;;;;;;16.96;82.64;102790.28;5039417;28;20411;-61
2021/08/24 04:43:28;;;;;;;12.80;6.53;;;;;;;16.93;83.18;102795.88;5027447;28;20522;-62
2021/08/24 04:45:54;;;;;;;12.40;7.22;;;;;;;17.07;82.27;102791.97;5042732;28;20174;-60
2021/08/24 04:48:21;;;;;;;11.13;6.35;;;;;;;17.50;78.61;102790.59;5036073;28;21366;-60
2021/08/24 04:50:49;;;;;;;16.50;6.15;;;;;;;17.74;77.93;102795.44;5039124;28;20053;-61
2021/08/24 04:53:15;;;;;;;11.77;6.10;;;;;;;17.98;76.60;102792.28;5042349;28;20214;-60
2021/08/24 04:55:42;;;;;;;12.52;6.50;;;;;;;18.21;75.95;102791.88;5028163;28;20084;-61
2021/08/24 04:58:12;;;;;;;15.25;6.85;;;;;;;17.35;79.08;102797.38;5035617;28;20507;-60
2021/08/24 05:00:38;;;;;;;13.02;6.30;;;;;;;17.55;79.32;102798.97;5034257;28;20415;-62
2021/08/24 05:03:05;;;;;;;12.48;5.45;;;;;;;17.86;76.62;102793.47;5039985;28;20447;-61
2021/08/24 05:05:32;;;;;;;12.55;6.43;;;;;;;17.19;79.91;102793.50;5034118;28;20053;-59
2021/08/24 05:07:59;;;;;;;12.38;6.85;;;;;;;16.59;84.58;102801.56;5042390;28;20467;-62
2021/08/24 05:10:25;;;;;;;15.15;6.60;;;;;;;16.67;83.51;102800.88;5031240;28;20176;-60
2021/08/24 05:12:53;;;;;;;14.55;7.40;;;;;;;16.61;85.79;102804.06;5030812;28;20467;-58
2021/08/24 05:15:19;;;;;;;10.88;6.07;;;;;;;16.60;85.33;102803.25;5041048;28;20449;-60
2021/08/24 05:17:49;;;;;;;13.20;7.43;;;;;;;16.52;86.90;102811.00;5034703;28;20585;-60
2021/08/24 05:20:18;;;;;;;13.57;6.95;;;;;;;16.56;86.31;102806.28;5039956;28;20096;-59
2021/08/24 05:22:45;;;;;;;18.02;7.30;;;;;;;16.55;86.29;102813.41;5029794;28;20219;-60
2021/08/24 05:25:16;;;;;;;17.42;7.30;;;;;;;16.58;86.30;102818.44;5040163;28;20049;-59
2021/08/24 05:27:42;;;;;;;15.18;6.97;;;;;;;16.61;86.29;102804.91;5046062;28;20124;-60
2021/08/24 05:30:12;;;;;;;12.07;5.65;;;;;;;16.67;85.70;102813.28;5040775;28;20509;-61
2021/08/24 05:32:38;;;;;;;14.23;6.18;;;;;;;16.67;85.63;102819.41;5044914;28;20140;-60
2021/08/24 05:35:05;;;;;;;14.70;7.28;;;;;;;16.63;86.93;102818.00;5036946;28;20144;-61
2021/08/24 05:37:31;;;;;;;14.50;6.72;;;;;;;16.73;86.51;102813.56;5020809;28;20162;-60
2021/08/24 05:39:58;;;;;;;16.67;6.97;;;;;;;16.73;87.01;102824.16;5034220;28;20091;-59
2021/08/24 05:42:25;;;;;;;13.93;5.57;;;;;;;16.67;86.63;102822.06;5046045;28;20135;-62
2021/08/24 05:44:51;;;;;;;12.63;5.65;;;;;;;17.36;81.94;102822.91;5042107;28;20147;-61
2021/08/24 05:47:18;;;;;;;10.25;6.00;;;;;;;16.66;87.17;102824.84;5029323;28;20135;-61
2021/08/24 05:49:44;;;;;;;11.32;5.70;;;;;;;16.50;89.36;102817.44;5043788;28;20088;-61
2021/08/24 05:52:13;;;;;;;15.88;7.13;;;;;;;16.40;90.67;102812.13;5033495;28;20441;-62
2021/08/24 05:54:40;;;;;;;12.20;5.80;;;;;;;16.26;90.24;102820.44;5042978;28;20721;-62
2021/08/24 05:57:06;;;;;;;12.00;5.95;;;;;;;16.25;92.26;102819.63;5039548;28;20519;-61
2021/08/24 05:59:34;;;;;;;12.15;4.97;;;;;;;17.22;86.57;102818.03;5042484;28;20080;-61
2021/08/24 06:02:00;;;;;;;14.80;6.50;;;;;;;16.71;89.12;102823.44;5036133;28;20103;-60
2021/08/24 06:04:27;;;;;;;10.48;5.55;;;;;;;16.57;90.14;102819.41;5040550;28;20084;-60
2021/08/24 06:06:54;;;;;;;15.05;6.05;;;;;;;16.70;90.21;102824.44;5043155;28;20590;-57
2021/08/24 06:09:21;;;;;;;13.90;5.10;;;;;;;16.63;88.96;102818.00;5037944;28;20059;-61
2021/08/24 06:11:50;;;;;;;10.25;5.60;;;;;;;16.83;89.11;102824.19;5041364;28;20136;-62
2021/08/24 06:14:19;;;;;;;9.25;5.57;;;;;;;17.10;87.67;102822.66;5037016;28;20118;-61
2021/08/24 06:16:47;;;;;;;11.45;5.95;;;;;;;17.27;87.34;102831.69;5040066;28;20541;-61
2021/08/24 06:19:13;;;;;;;24.57;7.40;;;;;;;17.14;88.17;102821.41;5030216;28;20478;-61
2021/08/24 06:21:40;;;;;;;13.07;5.07;;;;;;;17.28;87.25;102822.78;5044018;28;20084;-61
2021/08/24 06:24:07;;;;;;;16.15;6.40;;;;;;;17.24;88.19;102832.84;5044686;28;20164;-60
2021/08/24 06:26:34;;;;;;;13.73;6.03;;;;;;;17.63;86.10;102831.94;5038222;28;20500;-61
2021/08/24 06:29:00;;;;;;;12.27;5.57;;;;;;;17.92;82.66;102834.53;5042455;28;20104;-59
2021/08/24 06:31:30;;;;;;;9.95;5.57;;;;;;;17.90;83.65;102832.00;5029583;28;20329;-59
2021/08/24 06:33:56;;;;;;;12.40;6.15;;;;;;;18.38;81.97;102832.72;5043246;28;20045;-61
2021/08/24 06:36:24;;;;;;;12.55;6.05;;;;;;;18.54;80.66;102835.59;5033400;28;20559;-61
2021/08/24 06:38:51;;;;;;;12.48;5.93;;;;;;;18.05;82.46;102829.69;5044099;28;20048;-61
2021/08/24 06:41:19;;;;;;;13.30;6.05;;;;;;;18.07;82.29;102833.06;5038877;28;20167;-61
2021/08/24 06:43:45;;;;;;;11.67;5.80;;;;;;;18.14;82.52;102828.81;5036210;28;20072;-62
2021/08/24 06:46:12;;;;;;;11.70;6.55;;;;;;;18.25;82.94;102834.91;5037161;28;20132;-62
2021/08/24 06:48:38;;;;;;;14.45;6.57;;;;;;;17.74;84.70;102827.28;5036997;28;20045;-62
2021/08/24 06:51:05;;;;;;;10.35;6.35;;;;;;;17.76;85.46;102827.97;5043490;28;20156;-60
2021/08/24 06:53:31;;;;;;;11.30;7.00;;;;;;;17.92;84.69;102829.22;5035760;28;20134;-59
2021/08/24 06:55:58;;;;;;;13.65;6.97;;;;;;;17.92;85.61;102835.34;5044870;28;20080;-60
2021/08/24 06:58:24;;;;;;;14.68;8.13;;;;;;;17.98;85.10;102834.75;5027173;28;20371;-61
2021/08/24 07:00:51;;;;;;;15.77;7.65;;;;;;;17.52;88.57;102840.88;5041736;28;20154;-61
2021/08/24 07:03:18;;;;;;;13.13;7.82;;;;;;;17.61;88.83;102839.19;5024422;28;20049;-62
2021/08/24 07:05:49;;;;;;;13.23;7.22;;;;;;;17.54;89.00;102844.22;5035982;28;20053;-63
2021/08/24 07:08:16;;;;;;;12.52;7.80;;;;;;;17.48;91.92;102858.06;5042890;28;20132;-62
2021/08/24 07:10:44;;;;;;;14.70;7.33;;;;;;;17.77;88.92;102850.03;5028416;28;20055;-62
2021/08/24 07:13:11;;;;;;;12.73;7.40;;;;;;;17.84;87.43;102848.53;5038934;28;20084;-62
2021/08/24 07:15:37;;;;;;;14.88;7.28;;;;;;;17.92;87.62;102850.44;5036365;28;20175;-62
2021/08/24 07:18:06;;;;;;;12.95;7.28;;;;;;;18.09;86.02;102848.81;5042214;28;20053;-62
2021/08/24 07:20:33;;;;;;;10.82;7.20;;;;;;;18.40;83.92;102846.69;5040583;28;20083;-62
2021/08/24 07:23:01;;;;;;;13.55;6.68;;;;;;;17.98;86.49;102847.22;5034305;28;20103;-62
2021/08/24 07:25:28;;;;;;;13.15;6.95;;;;;;;17.88;87.11;102844.59;5035593;28;20135;-61
2021/08/24 07:27:55;;;;;;;13.88;7.38;;;;;;;18.01;86.23;102841.59;5032837;28;20437;-62
2021/08/24 07:30:22;;;;;;;13.90;7.18;;;;;;;17.96;86.33;102841.22;5043172;28;20045;-61
2021/08/24 07:32:49;;;;;;;10.57;6.00;;;;;;;18.30;85.03;102848.59;5034552;28;20136;-62
2021/08/24 07:35:17;;;;;;;16.60;7.45;;;;;;;18.40;83.98;102846.69;5042607;28;20049;-61
2021/08/24 07:37:44;;;;;;;12.45;7.15;;;;;;;17.88;85.18;102844.59;5040762;28;20433;-63
2021/08/24 07:40:11;;;;;;;13.13;6.53;;;;;;;17.73;86.28;102849.47;5035429;28;20140;-62
2021/08/24 07:42:39;;;;;;;11.43;6.47;;;;;;;17.89;86.32;102848.06;5042253;28;20516;-62
2021/08/24 07:45:07;;;;;;;11.95;6.75;;;;;;;17.96;84.51;102841.22;5035380;28;20045;-60
2021/08/24 07:47:33;;;;;;;12.70;5.40;;;;;;;18.00;84.00;102841.75;5041343;28;20127;-62
2021/08/24 07:50:00;;;;;;;16.05;6.70;;;;;;;18.06;83.35;102849.13;5025805;28;20059;-61
2021/08/24 07:52:26;;;;;;;13.85;6.38;;;;;;;18.27;82.96;102849.72;5040942;28;20539;-61
2021/08/24 07:54:53;;;;;;;11.75;5.53;;;;;;;18.40;82.53;102848.53;5039630;28;20124;-62
2021/08/24 07:57:19;;;;;;;8.52;4.22;;;;;;;18.46;82.13;102837.31;5039696;28;20559;-60
2021/08/24 07:59:46;;;;;;;9.90;6.55;;;;;;;18.55;82.05;102836.41;5042618;28;20084;-60
2021/08/24 08:02:15;;;;;;;10.65;6.20;;;;;;;18.50;81.06;102833.34;5028062;28;20485;-63
2021/08/24 08:04:42;;;;;;;8.93;4.95;;;;;;;18.32;81.89;102850.09;5038820;28;20496;-63
2021/08/24 08:07:10;;;;;;;8.43;5.57;;;;;;;18.51;80.49;102851.00;5035034;28;20155;-62
2021/08/24 08:09:36;;;;;;;7.70;5.40;;;;;;;18.82;79.75;102848.84;5041608;28;20137;-62
2021/08/24 08:12:03;;;;;;;10.82;5.60;;;;;;;19.08;79.36;102848.91;5030707;28;20301;-61
2021/08/24 08:14:30;;;;;;;10.73;6.15;;;;;;;19.07;79.53;102852.56;5039922;28;20167;-62
2021/08/24 08:16:56;;;;;;;12.50;6.38;;;;;;;20.63;73.81;102852.59;5036126;28;20110;-62
2021/08/24 08:19:23;;;;;;;10.23;6.72;;;;;;;20.98;69.32;102854.13;5031883;28;20051;-62
2021/08/24 08:21:49;;;;;;;11.70;5.20;;;;;;;21.03;70.34;102856.28;5043999;28;20314;-61
2021/08/24 08:24:19;;;;;;;13.05;4.88;;;;;;;21.00;69.91;102853.97;5033599;28;20435;-61
2021/08/24 08:26:45;;;;;;;11.02;4.97;;;;;;;21.04;70.13;102853.47;5043677;28;20141;-62
2021/08/24 08:29:13;;;;;;;11.10;4.70;;;;;;;21.09;69.63;102856.47;5009805;28;20089;-57
2021/08/24 08:31:43;;;;;;;12.20;5.35;;;;;;;21.94;67.28;102854.34;5038240;28;20545;-61
2021/08/24 08:34:12;;;;;;;8.65;4.57;;;;;;;22.36;65.23;102856.69;5041108;28;20080;-63
2021/08/24 08:36:39;;;;;;;11.38;4.47;;;;;;;21.76;67.59;102850.06;5014303;28;20139;-59
2021/08/24 08:39:05;;;;;;;10.13;4.65;;;;;;;21.99;67.89;102846.63;5042581;28;20135;-60
2021/08/24 08:42:00;;;;;;;9.05;4.60;;;;;;;21.88;67.65;102851.34;5032145;28;20063;-61
2021/08/24 08:44:45;;;;;;;10.48;4.63;;;;;;;22.09;67.58;102856.13;5037075;28;20135;-63
2021/08/24 08:47:31;;;;;;;9.52;4.60;;;;;;;22.47;64.15;102856.28;5033637;28;20048;-60
2021/08/24 08:50:13;;;;;;;8.82;4.70;;;;;;;22.58;65.85;102859.56;5039859;28;20187;-61
2021/08/24 08:52:51;;;;;;;10.20;4.68;;;;;;;22.55;65.10;102860.75;5034018;28;20124;-63
2021/08/24 08:55:35;;;;;;;11.68;6.07;;;;;;;22.55;65.08;102859.94;5038104;28;20056;-63
2021/08/24 08:58:32;;;;;;;11.63;5.90;;;;;;;22.71;64.59;102859.81;5028209;28;20491;-62
2021/08/24 09:01:05;;;;;;;10.45;4.15;;;;;;;23.58;61.98;102858.59;5040327;28;20463;-63
2021/08/24 09:04:06;;;;;;;8.75;5.03;;;;;;;25.02;57.89;102857.00;5016105;28;20498;-61
2021/08/24 09:06:34;;;;;;;9.60;4.82;;;;;;;25.47;55.32;102856.75;5040340;28;20164;-64
2021/08/24 09:09:01;;;;;;;;;;;;;;;26.07;54.56;102848.19;5030542;28;20083;-61
2021/08/24 09:11:34;;;;;;;9.57;4.80;;;;;;;25.76;55.34;102857.56;5033066;28;20039;-61
2021/08/24 09:14:08;;;;;;;11.32;4.93;;;;;;;26.42;52.96;102855.16;5041424;28;20077;-61
2021/08/24 09:16:58;;;;;;;7.55;4.28;;;;;;;27.17;51.27;102854.19;5035921;28;20053;-63
2021/08/24 09:19:42;;;;;;;9.88;5.13;;;;;;;26.13;53.42;102866.22;5039530;28;20148;-62
2021/08/24 09:22:14;;;;;;;9.07;5.15;;;;;;;25.17;56.53;102856.09;5034283;28;20508;-61
2021/08/24 09:24:41;;;;;;;9.18;5.00;;;;;;;24.98;57.59;102863.78;5033426;28;20155;-61
2021/08/24 09:27:18;;;;;;;12.38;5.60;;;;;;;24.28;59.15;102865.31;5033194;28;20085;-61
2021/08/24 09:29:48;;;;;;;10.40;5.30;;;;;;;24.31;59.16;102864.13;5040399;28;20152;-62
2021/08/24 09:32:24;;;;;;;14.90;6.40;;;;;;;24.79;59.70;102862.56;5032220;28;20224;-62
2021/08/24 09:34:58;;;;;;;10.77;6.03;;;;;;;25.32;56.69;102862.22;5041996;28;20132;-62
2021/08/24 09:37:27;;;;;;;9.88;5.18;;;;;;;25.59;57.44;102863.22;5028225;28;20076;-62
2021/08/24 09:39:53;;;;;;;;;;;;;;;26.08;54.77;102863.31;5037405;28;20131;-62
2021/08/24 09:42:43;;;;;;;10.90;5.90;;;;;;;25.89;55.36;102862.97;5039810;28;20353;-62
2021/08/24 09:45:19;;;;;;;9.82;6.03;;;;;;;26.41;53.15;102869.63;5039625;28;20130;-61
2021/08/24 09:47:51;;;;;;;11.07;5.50;;;;;;;26.66;51.73;102850.25;5040912;28;20076;-62
2021/08/24 09:50:23;;;;;;;10.43;5.60;;;;;;;26.26;53.59;102857.38;5028448;28;20205;-62
2021/08/24 09:52:50;;;;;;;12.93;6.10;;;;;;;25.92;52.49;102859.09;5036739;28;20136;-62
2021/08/24 09:55:23;;;;;;;13.40;6.15;;;;;;;25.79;54.26;102857.13;5032749;28;20527;-62
2021/08/24 09:57:55;;;;;;;9.75;5.68;;;;;;;25.94;52.54;102855.19;5041977;28;20049;-62
2021/08/24 10:00:37;;;;;;;13.65;5.65;;;;;;;26.43;49.82;102853.28;5032924;28;20136;-61
2021/08/24 10:03:19;;;;;;;10.38;5.57;;;;;;;26.38;50.84;102842.28;5041069;28;20045;-62
2021/08/24 10:05:46;;;;;;;11.35;5.07;;;;;;;26.29;50.42;102847.03;5030820;28;20091;-62
2021/08/24 10:08:43;;;;;;;13.85;5.18;;;;;;;26.62;48.79;102839.06;5040228;28;20052;-62
2021/08/24 10:11:14;;;;;;;12.07;6.30;;;;;;;26.46;49.72;102844.78;5022221;28;20151;-62
2021/08/24 10:13:44;;;;;;;10.40;6.25;;;;;;;26.83;52.23;102835.38;5025814;28;20463;-62
2021/08/24 10:16:25;;;;;;;9.18;5.43;;;;;;;26.76;50.09;102842.59;5044271;28;20621;-62
2021/08/24 10:19:06;;;;;;;8.65;4.60;;;;;;;27.04;48.89;102833.47;5029871;28;20403;-62
2021/08/24 10:21:42;;;;;;;8.45;4.65;;;;;;;27.14;47.72;102828.50;5044531;28;20091;-62
2021/08/24 10:24:14;;;;;;;9.98;5.25;;;;;;;27.17;48.44;102828.09;5038616;28;20134;-60
2021/08/24 10:26:41;;;;;;;7.55;4.90;;;;;;;27.32;48.19;102827.06;5046559;28;20061;-62
2021/08/24 10:29:11;;;;;;;9.05;5.07;;;;;;;27.49;46.72;102830.94;5035076;28;20083;-62
2021/08/24 10:31:51;;;;;;;7.78;4.60;;;;;;;27.50;45.69;102832.63;5041244;28;20554;-62
2021/08/24 10:34:24;;;;;;;6.63;3.95;;;;;;;27.64;46.46;102838.81;5032964;28;20171;-62
2021/08/24 10:36:53;;;;;;;12.32;5.70;;;;;;;27.68;46.28;102836.47;5042074;28;20084;-61
2021/08/24 10:39:22;;;;;;;8.02;3.78;;;;;;;27.65;47.95;102832.34;5037651;28;20126;-62
2021/08/24 10:42:05;;;;;;;7.85;4.55;;;;;;;27.83;49.06;102820.88;5042951;28;20148;-62
2021/08/24 10:44:42;;;;;;;7.90;3.90;;;;;;;27.91;43.43;102822.53;5039986;28;20144;-60
2021/08/24 10:47:30;;;;;;;12.50;4.25;;;;;;;28.04;45.96;102825.19;5031349;28;20151;-62
2021/08/24 10:50:00;;;;;;;7.10;3.80;;;;;;;28.12;46.24;102829.50;5043244;28;20126;-62
2021/08/24 10:52:51;;;;;;;11.73;4.47;;;;;;;28.12;45.46;102829.50;5036452;28;20147;-62
2021/08/24 10:55:26;;;;;;;7.30;3.63;;;;;;;28.07;44.37;102822.06;5042419;28;20492;-61
2021/08/24 10:58:06;;;;;;;7.25;3.85;;;;;;;28.06;43.76;102833.06;5036287;28;20057;-62
2021/08/24 11:00:51;;;;;;;7.50;3.65;;;;;;;28.09;44.00;102822.66;5040104;28;20152;-62
2021/08/24 11:03:27;;;;;;;12.20;3.95;;;;;;;28.11;43.23;102817.03;5037786;28;20044;-62
2021/08/24 11:06:20;;;;;;;6.78;3.53;;;;;;;28.19;41.96;102817.63;5046926;28;20101;-62
2021/08/24 11:09:01;;;;;;;6.75;3.22;;;;;;;28.28;41.30;102815.47;5040240;28;20475;-62
2021/08/24 11:11:30;;;;;;;7.38;3.60;;;;;;;28.19;41.84;102817.63;5040668;28;20171;-62
2021/08/24 11:14:22;;;;;;;5.47;2.92;;;;;;;28.31;41.96;102819.63;5034861;28;20453;-61
2021/08/24 11:16:59;;;;;;;7.20;3.28;;;;;;;28.17;40.72;102810.81;5042494;28;20136;-60
2021/08/24 11:20:00;;;;;;;5.50;2.78;;;;;;;28.24;39.97;102808.88;5035070;28;20095;-61
2021/08/24 11:22:54;;;;;;;5.97;2.70;;;;;;;28.36;39.74;102801.75;5042775;28;20077;-62
2021/08/24 11:25:36;;;;;;;6.35;2.80;;;;;;;28.62;40.88;102804.47;5029271;28;20098;-61
2021/08/24 11:28:21;;;;;;;7.57;2.92;;;;;;;28.70;39.34;102796.94;5039827;28;20131;-61
2021/08/24 11:30:55;;;;;;;4.93;2.40;;;;;;;28.60;38.83;102799.31;5035302;28;20092;-62
2021/08/24 11:33:35;;;;;;;5.22;2.78;;;;;;;28.82;38.95;102801.66;5042181;28;20131;-61
2021/08/24 11:36:06;;;;;;;6.30;3.15;;;;;;;28.82;37.00;102801.66;5036611;28;20080;-62
2021/08/24 11:38:39;;;;;;;6.45;2.88;;;;;;;28.74;36.92;102790.06;5037715;28;20072;-62
2021/08/24 11:41:13;;;;;;;6.80;3.05;;;;;;;29.02;37.99;102791.47;5017021;28;20053;-62
2021/08/24 11:43:52;;;;;;;5.60;2.92;;;;;;;29.06;38.48;102781.03;5035616;28;20055;-62